Flight Track Log - Related Links

Times and Time Zones

All times are in EDT time to prevent confusion due to time zone crossing. See the GTI192 flight status page for this flight to view local times or setup timezone preferences in your user account.

Time Position Orientation Groundspeed Altitude Reporting Facility
EDT Latitude Longitude Course Direction KTS MPH feet Rate Location/Type
Thu 01:12:02 AM 41.5714 -83.8528 256° West 163 188 2,500  Level Cleveland Center
Thu 01:13:02 AM 41.5286 -83.8897 213° Southwest 188 216 5,400 3,250 Climbing Cleveland Center
Thu 01:14:02 AM 41.4686 -83.9419 213° Southwest 217 250 9,000 3,250 Climbing Cleveland Center
Thu 01:15:02 AM 41.4022 -83.9994 213° Southwest 257 296 11,900 2,250 Climbing Cleveland Center
Thu 01:16:02 AM 41.3239 -84.0478 205° Southwest 296 341 13,500 1,000 Climbing Cleveland Center
Thu 01:17:00 AM 41.2314 -84.1275 256° West  Level FlightAware Approximate
Thu 01:17:02 AM 41.2125 -84.0694 188° South 354 407 13,900  Level Cleveland Center
Thu 01:18:04 AM 41.1083 -84.1003 193° South 375 432 14,000  Climbing Indianapolis Center
Thu 01:19:04 AM 41.0064 -84.1308 193° South 377 434 13,900 -50 Descending Indianapolis Center
Thu 01:20:04 AM 40.9022 -84.1606 192° South 379 436 13,900  Level Indianapolis Center
Thu 01:21:05 AM 40.8003 -84.1892 192° South 373 429 13,900  Level Indianapolis Center
Thu 01:22:05 AM 40.6981 -84.2183 192° South 373 429 13,900  Level Indianapolis Center
Thu 01:23:06 AM 40.5947 -84.2464 192° South 376 433 13,900 50 Level Indianapolis Center
Thu 01:24:06 AM 40.4925 -84.2750 192° South 375 432 14,000 50 Climbing Indianapolis Center
Thu 01:25:06 AM 40.3889 -84.3036 192° South 377 434 14,000  Level Indianapolis Center
Thu 01:26:07 AM 40.2867 -84.3325 192° South 375 432 14,000  Level Indianapolis Center
Thu 01:27:07 AM 40.1825 -84.3603 192° South 378 435 14,000  Level Indianapolis Center
Thu 01:28:07 AM 40.0786 -84.3900 192° South 380 437 14,000  Level Indianapolis Center
Thu 01:29:08 AM 39.9750 -84.4181 192° South 378 435 14,000 -397 Level Indianapolis Center
Thu 01:30:08 AM 39.8697 -84.4475 192° South 384 442 13,200 -1,100 Descending Indianapolis Center
Thu 01:31:08 AM 39.7661 -84.4750 192° South 380 437 11,800 -992 Descending Indianapolis Center
Thu 01:32:09 AM 39.6719 -84.4994 191° South 356 410 11,200 -397 Descending Indianapolis Center
Thu 01:33:09 AM 39.5875 -84.5211 191° South 317 365 11,000 -100 Descending Indianapolis Center
Thu 01:34:09 AM 39.5092 -84.5558 199° South 298 343 11,000 -595 Level Indianapolis Center
Thu 01:35:10 AM 39.4494 -84.6106 215° Southwest 265 305 9,800 -1,240 Descending Indianapolis Center
Thu 01:36:10 AM 39.3906 -84.6636 215° Southwest 258 297 8,500 -1,461 Descending Indianapolis Center
Thu 01:37:05 AM 39.3333 -84.7167 216° Southwest 248 285 7,000 -1,670 Descending Cincinnati TRACON
Thu 01:38:05 AM 39.2833 -84.7500 207° Southwest 231 266 5,300 -1,476 Descending Cincinnati TRACON
Thu 01:39:11 AM 39.2167 -84.8167 218° Southwest 217 250 3,900 -773 Descending Cincinnati TRACON
Thu 01:40:17 AM 39.1667 -84.8500 207° Southwest 221 254 3,600 -182 Descending Cincinnati TRACON
Thu 01:41:23 AM 39.1000 -84.8333 169° South 190 219 3,500 -200 Descending Cincinnati TRACON
Thu 01:42:17 AM 39.0667 -84.8333 180° South 160 184 3,200 -632 Descending Cincinnati TRACON
Thu 01:43:17 AM 39.0500 -84.7833 113° Southeast 159 183 2,300 -850 Descending Cincinnati TRACON
Thu 01:44:17 AM 39.0500 -84.7333 90° East 141 162 1,500 -800 Descending Cincinnati TRACON

Login

Don't have an account? Register now (free) for customized features, flight alerts, and more!